createdAt,value
2018-12-25T00:01:04.569Z,7.67
2018-12-25T00:03:31.396Z,8.47
2018-12-25T00:05:57.662Z,7.60
2018-12-25T00:08:23.948Z,8.00
2018-12-25T00:10:50.229Z,7.23
2018-12-25T00:13:16.488Z,8.37
2018-12-25T00:15:42.758Z,11.83
2018-12-25T00:18:09.143Z,9.67
2018-12-25T00:20:35.548Z,10.03
2018-12-25T00:23:02.440Z,9.63
2018-12-25T00:25:28.707Z,8.87
2018-12-25T00:27:55.005Z,8.07
2018-12-25T00:30:22.939Z,8.30
2018-12-25T00:32:49.126Z,7.60
2018-12-25T00:35:15.436Z,7.30
2018-12-25T00:37:42.133Z,9.00
2018-12-25T00:40:08.389Z,8.73
2018-12-25T00:42:34.645Z,8.23
2018-12-25T00:45:01.035Z,8.50
2018-12-25T00:47:27.283Z,9.10
2018-12-25T00:49:53.660Z,8.00
2018-12-25T00:52:20.042Z,8.50
2018-12-25T00:54:46.349Z,7.23
2018-12-25T00:57:12.889Z,6.77
2018-12-25T00:59:39.293Z,7.50
2018-12-25T01:02:05.626Z,6.60
2018-12-25T01:04:31.892Z,6.83
2018-12-25T01:06:58.168Z,6.23
2018-12-25T01:09:24.576Z,10.40
2018-12-25T01:11:51.041Z,7.53
2018-12-25T01:14:17.313Z,8.00
2018-12-25T01:16:44.839Z,8.33
2018-12-25T01:19:11.148Z,8.77
2018-12-25T01:21:37.583Z,9.33
2018-12-25T01:24:03.956Z,8.70
2018-12-25T01:26:30.213Z,8.57
2018-12-25T01:28:56.583Z,7.43
2018-12-25T01:31:22.949Z,6.07
2018-12-25T01:33:49.330Z,8.03
2018-12-25T01:36:15.582Z,7.10
2018-12-25T01:38:41.867Z,7.63
2018-12-25T01:41:08.304Z,8.10
2018-12-25T01:43:34.717Z,10.60
2018-12-25T01:46:01.194Z,10.63
2018-12-25T01:48:27.684Z,10.40
2018-12-25T01:50:54.050Z,10.50
2018-12-25T01:53:20.353Z,10.00
2018-12-25T01:55:46.669Z,8.07
2018-12-25T01:58:13.037Z,8.13
2018-12-25T02:00:39.273Z,7.50
2018-12-25T02:03:05.655Z,8.43
2018-12-25T02:05:32.044Z,8.10
2018-12-25T02:07:58.331Z,8.73
2018-12-25T02:10:24.616Z,8.13
2018-12-25T02:12:51.072Z,7.03
2018-12-25T02:15:17.460Z,7.27
2018-12-25T02:17:43.742Z,6.60
2018-12-25T02:20:10.219Z,9.40
2018-12-25T02:22:36.507Z,7.40
2018-12-25T02:25:02.958Z,11.13
2018-12-25T02:27:29.243Z,10.77
2018-12-25T02:29:55.653Z,8.87
2018-12-25T02:32:21.919Z,8.60
2018-12-25T02:34:48.200Z,8.77
2018-12-25T02:37:14.513Z,9.90
2018-12-25T02:39:40.895Z,9.90
2018-12-25T02:42:07.302Z,11.17
2018-12-25T02:44:33.546Z,12.43
2018-12-25T02:47:00.065Z,12.73
2018-12-25T02:49:26.316Z,9.87
2018-12-25T02:51:52.681Z,10.13
2018-12-25T02:54:18.962Z,9.93
2018-12-25T02:56:45.310Z,12.10
2018-12-25T02:59:11.636Z,10.67
2018-12-25T03:01:38.084Z,10.00
2018-12-25T03:04:04.440Z,9.40
2018-12-25T03:06:30.775Z,10.27
2018-12-25T03:08:57.039Z,10.00
2018-12-25T03:11:23.271Z,10.07
2018-12-25T03:13:49.544Z,10.70
2018-12-25T03:16:15.858Z,15.80
2018-12-25T03:18:42.221Z,11.40
2018-12-25T03:21:08.527Z,10.63
2018-12-25T03:23:34.890Z,8.37
2018-12-25T03:26:01.258Z,9.13
2018-12-25T03:28:27.668Z,8.23
2018-12-25T03:30:54.057Z,7.60
2018-12-25T03:33:20.334Z,7.60
2018-12-25T03:35:46.594Z,7.27
2018-12-25T03:38:12.851Z,7.30
2018-12-25T03:40:39.330Z,7.13
2018-12-25T03:43:05.862Z,6.33
2018-12-25T03:45:32.061Z,6.93
2018-12-25T03:47:58.337Z,7.83
2018-12-25T03:50:24.629Z,8.93
2018-12-25T03:52:51.001Z,7.57
2018-12-25T03:55:17.301Z,6.93
2018-12-25T03:57:43.660Z,6.27
2018-12-25T04:00:10.016Z,6.93
2018-12-25T04:02:36.418Z,6.33
2018-12-25T04:05:03.473Z,6.10
2018-12-25T04:07:29.754Z,5.47
2018-12-25T04:09:56.122Z,5.00
2018-12-25T04:12:22.381Z,5.73
2018-12-25T04:14:48.669Z,6.73
2018-12-25T04:17:14.924Z,6.20
2018-12-25T04:19:41.193Z,5.47
2018-12-25T04:22:07.522Z,6.47
2018-12-25T04:24:33.912Z,5.67
2018-12-25T04:27:00.153Z,5.93
2018-12-25T04:29:26.431Z,10.80
2018-12-25T04:31:52.662Z,7.80
2018-12-25T04:34:18.938Z,7.90
2018-12-25T04:36:45.313Z,8.70
2018-12-25T04:39:11.701Z,7.00
2018-12-25T04:41:38.018Z,6.77
2018-12-25T04:44:04.343Z,6.10
2018-12-25T04:46:30.592Z,6.70
2018-12-25T04:48:56.862Z,7.13
2018-12-25T04:51:23.119Z,7.37
2018-12-25T04:53:49.403Z,9.40
2018-12-25T04:56:15.811Z,8.37
2018-12-25T04:58:42.074Z,13.17
2018-12-25T05:01:08.355Z,14.00
2018-12-25T05:03:34.625Z,15.00
2018-12-25T05:06:01.142Z,16.93
2018-12-25T05:08:27.523Z,17.47
2018-12-25T05:10:53.783Z,16.30
2018-12-25T05:13:20.147Z,13.40
2018-12-25T05:15:46.510Z,14.93
2018-12-25T05:18:12.930Z,13.43
2018-12-25T05:20:39.161Z,12.10
2018-12-25T05:23:05.456Z,11.97
2018-12-25T05:25:32.005Z,10.00
2018-12-25T05:27:58.459Z,8.70
2018-12-25T05:30:24.714Z,8.27
2018-12-25T05:32:50.989Z,7.53
2018-12-25T05:35:17.271Z,7.20
2018-12-25T05:37:43.594Z,7.30
2018-12-25T05:40:09.943Z,6.97
2018-12-25T05:42:36.199Z,6.43
2018-12-25T05:45:02.696Z,6.40
2018-12-25T05:47:29.815Z,6.10
2018-12-25T05:49:56.169Z,5.67
2018-12-25T05:52:22.437Z,5.83
2018-12-25T05:54:48.908Z,9.50
2018-12-25T05:57:15.174Z,8.20
2018-12-25T05:59:41.464Z,9.70
2018-12-25T06:02:07.843Z,9.83
2018-12-25T06:04:34.112Z,11.07
2018-12-25T06:07:00.407Z,11.53
2018-12-25T06:09:26.700Z,11.23
2018-12-25T06:11:53.107Z,10.23
2018-12-25T06:14:19.364Z,10.97
2018-12-25T06:16:45.624Z,10.87
2018-12-25T06:19:11.950Z,12.13
2018-12-25T06:21:38.307Z,9.77
2018-12-25T06:24:04.585Z,8.60
2018-12-25T06:26:30.980Z,9.33
2018-12-25T06:28:57.250Z,8.37
2018-12-25T06:31:23.554Z,8.00
2018-12-25T06:33:49.809Z,8.97
2018-12-25T06:36:16.198Z,10.63
2018-12-25T06:38:42.660Z,9.87
2018-12-25T06:41:09.037Z,11.97
2018-12-25T06:43:35.297Z,10.00
2018-12-25T06:46:01.573Z,9.47
2018-12-25T06:48:27.855Z,10.70
2018-12-25T06:50:54.236Z,9.13
2018-12-25T06:53:20.531Z,7.73
2018-12-25T06:55:46.961Z,7.33
2018-12-25T06:58:13.227Z,9.20
2018-12-25T07:00:39.492Z,7.03
2018-12-25T07:03:05.952Z,7.93
2018-12-25T07:05:32.339Z,6.47
2018-12-25T07:07:58.620Z,6.33
2018-12-25T07:10:24.901Z,6.77
2018-12-25T07:12:51.265Z,10.53
2018-12-25T07:15:17.531Z,9.27
2018-12-25T07:17:43.819Z,8.70
2018-12-25T07:20:10.379Z,10.93
2018-12-25T07:22:36.656Z,9.90
2018-12-25T07:25:03.125Z,13.40
2018-12-25T07:27:29.387Z,14.00
2018-12-25T07:29:55.853Z,12.33
2018-12-25T07:32:22.116Z,12.03
2018-12-25T07:34:48.480Z,11.37
2018-12-25T07:37:14.753Z,14.47
2018-12-25T07:39:41.169Z,12.17
2018-12-25T07:42:07.435Z,14.13
2018-12-25T07:44:33.669Z,17.47
2018-12-25T07:46:59.973Z,23.30
2018-12-25T07:49:26.333Z,23.00
2018-12-25T07:51:52.774Z,24.43
2018-12-25T07:54:19.076Z,18.03
2018-12-25T07:56:45.443Z,27.93
2018-12-25T07:59:11.728Z,23.47
2018-12-25T08:01:38.210Z,36.43
2018-12-25T08:04:04.692Z,16.43
2018-12-25T08:06:30.962Z,15.57
2018-12-25T08:08:57.340Z,15.90
2018-12-25T08:11:23.763Z,21.70
2018-12-25T08:13:50.034Z,22.17
2018-12-25T08:16:16.312Z,12.67
2018-12-25T08:18:42.674Z,12.97
2018-12-25T08:21:09.001Z,18.63
2018-12-25T08:23:35.292Z,18.10
2018-12-25T08:26:01.533Z,24.97
2018-12-25T08:28:27.953Z,18.40
2018-12-25T08:30:54.208Z,20.53
2018-12-25T08:33:20.523Z,19.77
2018-12-25T08:35:46.782Z,29.63
2018-12-25T08:38:13.167Z,19.60
2018-12-25T08:40:39.446Z,24.67
2018-12-25T08:43:05.790Z,22.80
2018-12-25T08:45:32.263Z,18.70
2018-12-25T08:47:58.589Z,20.27
2018-12-25T08:50:24.937Z,28.53
2018-12-25T08:52:51.200Z,19.67
2018-12-25T08:55:17.578Z,25.70
2018-12-25T08:57:43.864Z,24.47
2018-12-25T09:00:11.264Z,27.43
2018-12-25T09:02:37.554Z,20.57
2018-12-25T09:05:03.887Z,26.17
2018-12-25T09:07:30.251Z,28.47
2018-12-25T09:09:56.500Z,25.07
2018-12-25T09:12:22.758Z,25.67
2018-12-25T09:14:49.147Z,22.80
2018-12-25T09:17:15.428Z,22.67
2018-12-25T09:19:41.683Z,26.17
2018-12-25T09:22:08.025Z,17.70
2018-12-25T09:24:34.290Z,25.03
2018-12-25T09:27:00.559Z,21.63
2018-12-25T09:29:26.817Z,21.10
2018-12-25T09:31:53.201Z,15.57
2018-12-25T09:34:19.575Z,15.20
2018-12-25T09:36:45.836Z,17.97
2018-12-25T09:39:12.132Z,18.73
2018-12-25T09:41:38.492Z,18.40
2018-12-25T09:44:04.691Z,18.87
2018-12-25T09:46:31.008Z,21.80
2018-12-25T09:48:57.796Z,28.83
2018-12-25T09:51:24.098Z,26.70
2018-12-25T09:53:50.410Z,20.73
2018-12-25T09:56:16.964Z,22.40
2018-12-25T09:58:43.353Z,17.17
2018-12-25T10:01:09.698Z,18.40
2018-12-25T10:03:36.356Z,19.83
2018-12-25T10:06:02.840Z,16.43
2018-12-25T10:08:29.201Z,14.00
2018-12-25T10:10:55.606Z,16.13
2018-12-25T10:13:22.053Z,11.73
2018-12-25T10:15:48.642Z,11.33
2018-12-25T10:18:15.062Z,10.20
2018-12-25T10:20:41.450Z,10.63
2018-12-25T10:23:09.611Z,7.23
2018-12-25T10:25:35.943Z,10.80
2018-12-25T10:28:02.222Z,14.67
2018-12-25T10:30:28.774Z,19.50
2018-12-25T10:32:55.158Z,14.13
2018-12-25T10:35:21.494Z,11.27
2018-12-25T10:37:50.918Z,13.33
2018-12-25T10:40:19.228Z,11.87
2018-12-25T10:42:45.433Z,11.93
2018-12-25T10:45:11.724Z,12.97
2018-12-25T10:47:38.342Z,24.40
2018-12-25T10:50:06.702Z,18.70
2018-12-25T10:52:32.982Z,12.60
2018-12-25T10:54:59.376Z,7.90
2018-12-25T10:57:25.671Z,12.17
2018-12-25T10:59:51.961Z,15.43
2018-12-25T11:02:18.572Z,13.07
2018-12-25T11:04:44.943Z,14.87
2018-12-25T11:07:11.226Z,12.13
2018-12-25T11:09:37.881Z,9.80
2018-12-25T11:12:04.276Z,7.40
2018-12-25T11:14:30.657Z,17.37
2018-12-25T11:16:57.027Z,20.23
2018-12-25T11:19:23.338Z,14.50
2018-12-25T11:21:49.758Z,12.40
2018-12-25T11:24:16.150Z,11.97
2018-12-25T11:26:42.456Z,11.37
2018-12-25T11:29:08.812Z,18.03
2018-12-25T11:31:35.321Z,21.43
2018-12-25T11:34:02.602Z,15.13
2018-12-25T11:36:29.012Z,12.00
2018-12-25T11:38:55.330Z,11.67
2018-12-25T11:41:21.593Z,11.90
2018-12-25T11:43:50.828Z,13.03
2018-12-25T11:46:17.219Z,16.03
2018-12-25T11:48:43.566Z,14.70
2018-12-25T11:51:09.950Z,15.20
2018-12-25T11:53:36.246Z,14.97
2018-12-25T11:56:02.636Z,13.23
2018-12-25T11:58:28.924Z,14.10
2018-12-25T12:00:55.226Z,12.73
2018-12-25T12:03:21.635Z,14.63
2018-12-25T12:05:49.790Z,11.53
2018-12-25T12:08:16.185Z,12.97
2018-12-25T12:10:42.442Z,14.73
2018-12-25T12:13:08.758Z,13.83
2018-12-25T12:15:35.041Z,10.67
2018-12-25T12:18:01.456Z,9.37
2018-12-25T12:20:30.844Z,10.00
2018-12-25T12:22:57.132Z,12.20
2018-12-25T12:25:23.402Z,16.37
2018-12-25T12:27:49.682Z,14.47
2018-12-25T12:30:15.953Z,14.20
2018-12-25T12:32:43.452Z,12.87
2018-12-25T12:35:09.733Z,10.63
2018-12-25T12:37:35.994Z,13.63
2018-12-25T12:40:04.175Z,10.77
2018-12-25T12:42:30.567Z,12.27
2018-12-25T12:44:56.870Z,9.97
2018-12-25T12:47:23.198Z,10.73
2018-12-25T12:49:49.593Z,9.87
2018-12-25T12:52:15.855Z,11.70
2018-12-25T12:54:42.274Z,13.20
2018-12-25T12:57:09.209Z,13.77
2018-12-25T12:59:35.468Z,12.70
2018-12-25T13:02:01.822Z,10.67
2018-12-25T13:04:28.486Z,14.30
2018-12-25T13:06:54.717Z,11.33
2018-12-25T13:09:21.124Z,10.23
2018-12-25T13:11:47.489Z,9.63
2018-12-25T13:14:13.809Z,9.10
2018-12-25T13:16:40.068Z,10.53
2018-12-25T13:19:06.306Z,9.57
2018-12-25T13:21:32.679Z,7.40
2018-12-25T13:23:59.058Z,8.13
2018-12-25T13:26:25.448Z,8.47
2018-12-25T13:28:51.743Z,8.13
2018-12-25T13:31:18.444Z,10.30
2018-12-25T13:33:44.679Z,8.23
2018-12-25T13:36:11.203Z,8.93
2018-12-25T13:38:37.492Z,11.17
2018-12-25T13:41:03.744Z,9.27
2018-12-25T13:43:30.024Z,9.53
2018-12-25T13:45:56.271Z,10.93
2018-12-25T13:48:22.518Z,10.20
2018-12-25T13:50:50.702Z,10.37
2018-12-25T13:53:17.096Z,11.97
2018-12-25T13:55:43.442Z,8.43
2018-12-25T13:58:09.751Z,11.77
2018-12-25T14:00:36.213Z,18.10
2018-12-25T14:03:02.620Z,25.27
2018-12-25T14:05:29.315Z,14.93
2018-12-25T14:07:55.600Z,13.43
2018-12-25T14:10:21.908Z,10.50
2018-12-25T14:12:48.762Z,12.87
2018-12-25T14:15:15.005Z,11.30
2018-12-25T14:17:41.487Z,11.27
2018-12-25T14:20:07.763Z,12.07
2018-12-25T14:22:34.079Z,13.93
2018-12-25T14:25:00.477Z,10.27
2018-12-25T14:27:26.922Z,9.57
2018-12-25T14:29:53.282Z,10.37
2018-12-25T14:32:19.591Z,11.50
2018-12-25T14:34:45.839Z,11.47
2018-12-25T14:37:12.129Z,9.93
2018-12-25T14:39:38.797Z,11.80
2018-12-25T14:42:05.070Z,10.70
2018-12-25T14:44:31.316Z,12.83
2018-12-25T14:46:57.731Z,10.37
2018-12-25T14:49:24.243Z,10.13
2018-12-25T14:51:50.478Z,14.43
2018-12-25T14:54:17.005Z,11.87
2018-12-25T14:56:43.358Z,9.23
2018-12-25T14:59:09.777Z,14.97
2018-12-25T15:01:36.058Z,14.53
2018-12-25T15:04:02.565Z,17.93
2018-12-25T15:06:29.397Z,16.17
2018-12-25T15:08:55.682Z,12.53
2018-12-25T15:11:21.944Z,12.83
2018-12-25T15:13:48.294Z,12.37
2018-12-25T15:16:14.602Z,12.87
2018-12-25T15:18:40.903Z,14.17
2018-12-25T15:21:07.427Z,7.90
2018-12-25T15:23:33.766Z,13.07
2018-12-25T15:26:00.074Z,13.43
2018-12-25T15:28:26.331Z,14.87
2018-12-25T15:30:52.668Z,13.03
2018-12-25T15:33:19.435Z,11.30
2018-12-25T15:35:45.745Z,11.80
2018-12-25T15:38:12.120Z,11.07
2018-12-25T15:40:38.388Z,9.23
2018-12-25T15:43:04.695Z,8.73
2018-12-25T15:45:30.986Z,8.90
2018-12-25T15:47:57.420Z,9.93
2018-12-25T15:50:23.900Z,10.23
2018-12-25T15:52:50.204Z,14.93
2018-12-25T15:55:16.758Z,15.70
2018-12-25T15:57:43.183Z,11.67
2018-12-25T16:00:12.266Z,10.73
2018-12-25T16:02:38.566Z,13.50
2018-12-25T16:05:05.214Z,12.60
2018-12-25T16:07:31.685Z,11.13
2018-12-25T16:09:58.126Z,16.43
2018-12-25T16:12:24.363Z,13.73
2018-12-25T16:14:50.871Z,13.40
2018-12-25T16:17:17.133Z,13.27
2018-12-25T16:19:43.508Z,12.00
2018-12-25T16:22:09.798Z,12.03
2018-12-25T16:24:36.212Z,11.93
2018-12-25T16:27:02.600Z,11.27
2018-12-25T16:29:29.536Z,11.47
2018-12-25T16:31:55.939Z,18.00
2018-12-25T16:34:22.263Z,13.30
2018-12-25T16:36:48.615Z,13.97
2018-12-25T16:39:14.887Z,15.23
2018-12-25T16:41:41.164Z,13.53
2018-12-25T16:44:07.443Z,13.23
2018-12-25T16:46:33.715Z,18.90
2018-12-25T16:48:59.985Z,18.90
2018-12-25T16:51:26.354Z,20.07
2018-12-25T16:53:53.595Z,22.13
2018-12-25T16:56:20.215Z,20.10
2018-12-25T16:58:46.481Z,17.20
2018-12-25T17:01:12.774Z,16.53
2018-12-25T17:03:39.238Z,17.70
2018-12-25T17:06:05.512Z,24.00
2018-12-25T17:08:31.899Z,17.57
2018-12-25T17:10:58.281Z,21.83
2018-12-25T17:13:24.797Z,19.93
2018-12-25T17:15:51.066Z,16.60
2018-12-25T17:18:17.353Z,17.00
2018-12-25T17:20:43.636Z,15.03
2018-12-25T17:23:10.241Z,16.03
2018-12-25T17:25:36.600Z,17.47
2018-12-25T17:28:03.079Z,11.43
2018-12-25T17:30:29.752Z,11.40
2018-12-25T17:32:56.081Z,9.60
2018-12-25T17:35:22.483Z,27.97
2018-12-25T17:37:48.893Z,24.10
2018-12-25T17:40:15.163Z,27.17
2018-12-25T17:42:41.485Z,15.83
2018-12-25T17:45:07.854Z,15.83
2018-12-25T17:47:34.087Z,19.97
2018-12-25T17:50:00.600Z,20.23
2018-12-25T17:52:26.954Z,25.97
2018-12-25T17:54:53.362Z,22.83
2018-12-25T17:57:19.936Z,21.77
2018-12-25T17:59:46.274Z,21.73
2018-12-25T18:02:12.561Z,22.47
2018-12-25T18:04:38.835Z,16.93
2018-12-25T18:07:05.130Z,14.97
2018-12-25T18:09:31.501Z,18.10
2018-12-25T18:11:57.782Z,16.30
2018-12-25T18:14:24.170Z,14.97
2018-12-25T18:16:50.530Z,17.93
2018-12-25T18:19:16.895Z,22.10
2018-12-25T18:21:43.209Z,16.97
2018-12-25T18:24:09.773Z,16.90
2018-12-25T18:26:36.246Z,17.00
2018-12-25T18:29:02.639Z,20.13
2018-12-25T18:31:29.002Z,26.73
2018-12-25T18:33:55.304Z,25.17
2018-12-25T18:36:21.699Z,20.33
2018-12-25T18:38:47.964Z,20.83
2018-12-25T18:41:14.203Z,17.37
2018-12-25T18:43:40.551Z,17.83
2018-12-25T18:46:06.810Z,24.03
2018-12-25T18:48:33.080Z,23.80
2018-12-25T18:50:59.731Z,24.50
2018-12-25T18:53:28.186Z,21.67
2018-12-25T18:55:54.204Z,19.47
2018-12-25T18:58:20.446Z,26.87
2018-12-25T19:00:46.723Z,19.43
2018-12-25T19:03:13.034Z,17.93
2018-12-25T19:05:39.620Z,21.10
2018-12-25T19:08:06.003Z,25.03
2018-12-25T19:10:32.564Z,22.47
2018-12-25T19:12:58.940Z,24.70
2018-12-25T19:15:25.311Z,24.20
2018-12-25T19:17:52.267Z,17.47
2018-12-25T19:20:18.648Z,19.80
2018-12-25T19:22:44.918Z,25.17
2018-12-25T19:25:11.370Z,23.43
2018-12-25T19:27:37.727Z,24.00
2018-12-25T19:30:07.784Z,17.33
2018-12-25T19:32:34.075Z,14.07
2018-12-25T19:35:00.464Z,24.73
2018-12-25T19:37:26.946Z,23.33
2018-12-25T19:39:53.430Z,22.63
2018-12-25T19:42:22.230Z,25.50
2018-12-25T19:44:48.728Z,23.90
2018-12-25T19:47:15.239Z,18.87
2018-12-25T19:49:41.704Z,20.60
2018-12-25T19:52:08.207Z,16.13
2018-12-25T19:54:34.558Z,20.13
2018-12-25T19:57:01.057Z,19.57
2018-12-25T19:59:27.460Z,20.07
2018-12-25T20:01:53.820Z,35.93
2018-12-25T20:04:26.952Z,30.17
2018-12-25T20:06:57.005Z,24.43
2018-12-25T20:09:30.219Z,28.97
2018-12-25T20:12:09.446Z,22.17
2018-12-25T20:14:54.704Z,26.53
2018-12-25T20:17:27.538Z,30.00
2018-12-25T20:20:12.513Z,23.77
2018-12-25T20:22:57.650Z,27.33
2018-12-25T20:25:39.852Z,27.37
2018-12-25T20:28:18.957Z,22.33
2018-12-25T20:31:03.659Z,22.97
2018-12-25T20:33:39.490Z,22.37
2018-12-25T20:36:46.112Z,23.27
2018-12-25T20:39:19.158Z,26.80
2018-12-25T20:41:49.254Z,25.00
2018-12-25T20:44:34.674Z,28.57
2018-12-25T20:47:37.061Z,32.27
2018-12-25T20:50:12.823Z,24.83
2018-12-25T20:52:48.902Z,26.90
2018-12-25T20:55:52.919Z,23.70
2018-12-25T20:58:44.558Z,25.83
2018-12-25T21:01:40.710Z,25.50
2018-12-25T21:04:20.148Z,23.03
2018-12-25T21:07:02.158Z,23.63
2018-12-25T21:09:58.010Z,20.87
2018-12-25T21:12:34.099Z,22.30
2018-12-25T21:15:19.416Z,25.47
2018-12-25T21:18:18.117Z,24.73
2018-12-25T21:21:20.542Z,25.33
2018-12-25T21:24:25.994Z,28.40
2018-12-25T21:27:30.050Z,26.73
2018-12-25T21:29:58.040Z,25.87
2018-12-25T21:32:25.051Z,25.33
2018-12-25T21:34:57.858Z,22.40
2018-12-25T21:37:24.662Z,21.63
2018-12-25T21:39:51.634Z,22.27
2018-12-25T21:42:19.123Z,30.10
2018-12-25T21:44:45.990Z,26.90
2018-12-25T21:47:12.474Z,24.93
2018-12-25T21:49:42.208Z,24.20
2018-12-25T21:52:08.694Z,20.40
2018-12-25T21:54:35.302Z,20.07
2018-12-25T21:57:01.749Z,21.73
2018-12-25T21:59:28.338Z,21.07
2018-12-25T22:01:54.799Z,17.40
2018-12-25T22:04:21.456Z,21.20
2018-12-25T22:06:47.765Z,22.57
2018-12-25T22:09:14.241Z,18.90
2018-12-25T22:11:42.438Z,19.17
2018-12-25T22:14:08.741Z,22.77
2018-12-25T22:16:35.129Z,17.43
2018-12-25T22:19:01.494Z,18.53
2018-12-25T22:21:27.920Z,18.87
2018-12-25T22:23:54.182Z,20.60
2018-12-25T22:26:20.899Z,20.83
2018-12-25T22:28:47.290Z,19.60
2018-12-25T22:31:13.534Z,17.90
2018-12-25T22:33:39.926Z,17.03
2018-12-25T22:36:06.505Z,23.57
2018-12-25T22:38:32.789Z,24.50
2018-12-25T22:40:59.089Z,21.93
2018-12-25T22:43:25.660Z,29.67
2018-12-25T22:45:51.999Z,23.60
2018-12-25T22:48:18.372Z,27.87
2018-12-25T22:50:44.777Z,24.13
2018-12-25T22:53:11.225Z,29.60
2018-12-25T22:55:37.493Z,27.93
2018-12-25T22:58:03.777Z,27.20
2018-12-25T23:00:30.495Z,24.97
2018-12-25T23:02:56.872Z,25.80
2018-12-25T23:05:23.183Z,21.93
2018-12-25T23:07:49.632Z,23.97
2018-12-25T23:10:15.986Z,23.00
2018-12-25T23:12:42.274Z,22.10
2018-12-25T23:15:08.816Z,17.23
2018-12-25T23:17:35.205Z,17.70
2018-12-25T23:20:03.454Z,26.10
2018-12-25T23:22:29.847Z,22.30
2018-12-25T23:24:56.252Z,25.00
2018-12-25T23:27:22.529Z,27.67
2018-12-25T23:29:48.826Z,26.50
2018-12-25T23:32:15.209Z,25.83
2018-12-25T23:34:41.487Z,28.97
2018-12-25T23:37:07.831Z,26.40
2018-12-25T23:39:34.240Z,28.07
2018-12-25T23:42:00.925Z,24.73
2018-12-25T23:44:27.321Z,26.37
2018-12-25T23:46:53.626Z,26.17
2018-12-25T23:49:20.092Z,27.67
2018-12-25T23:51:46.491Z,27.10
2018-12-25T23:54:13.007Z,24.33
2018-12-25T23:56:39.373Z,24.27
2018-12-25T23:59:05.779Z,26.40
